createdAt,value
2023-03-06T00:01:09.866Z,4.50
2023-03-06T00:03:39.086Z,4.50
2023-03-06T00:06:07.554Z,4.50
2023-03-06T00:08:35.425Z,4.50
2023-03-06T00:11:03.283Z,4.50
2023-03-06T00:13:32.116Z,4.50
2023-03-06T00:16:01.583Z,4.50
2023-03-06T00:18:29.587Z,4.50
2023-03-06T00:20:58.799Z,4.50
2023-03-06T00:23:27.445Z,4.50
2023-03-06T00:25:55.308Z,4.40
2023-03-06T00:28:23.365Z,4.40
2023-03-06T00:30:51.278Z,4.50
2023-03-06T00:33:19.067Z,4.40
2023-03-06T00:35:47.011Z,4.40
2023-03-06T00:38:16.223Z,4.40
2023-03-06T00:40:44.196Z,4.40
2023-03-06T00:43:12.141Z,4.40
2023-03-06T00:45:40.116Z,4.40
2023-03-06T00:48:07.997Z,4.40
2023-03-06T00:50:36.244Z,4.40
2023-03-06T00:53:04.082Z,4.40
2023-03-06T00:55:33.473Z,4.40
2023-03-06T00:58:01.374Z,4.40
2023-03-06T01:00:29.191Z,4.40
2023-03-06T01:02:57.008Z,4.40
2023-03-06T01:05:24.931Z,4.40
2023-03-06T01:07:52.852Z,4.30
2023-03-06T01:10:21.062Z,4.30
2023-03-06T01:12:50.264Z,4.30
2023-03-06T01:15:18.115Z,4.30
2023-03-06T01:17:46.842Z,4.30
2023-03-06T01:20:17.135Z,4.30
2023-03-06T01:22:45.890Z,4.40
2023-03-06T01:25:13.829Z,4.30
2023-03-06T01:27:41.720Z,4.30
2023-03-06T01:30:12.676Z,4.30
2023-03-06T01:32:40.927Z,4.30
2023-03-06T01:35:09.558Z,4.30
2023-03-06T01:37:37.791Z,4.30
2023-03-06T01:40:07.393Z,4.30
2023-03-06T01:42:35.371Z,4.30
2023-03-06T01:45:06.107Z,4.30
2023-03-06T01:47:35.448Z,4.30
2023-03-06T01:50:05.223Z,4.30
2023-03-06T01:52:36.980Z,4.30
2023-03-06T01:55:09.287Z,4.30
2023-03-06T01:57:43.305Z,4.30
2023-03-06T02:00:14.587Z,4.30
2023-03-06T02:02:48.407Z,4.30
2023-03-06T02:05:16.654Z,4.30
2023-03-06T02:07:53.677Z,4.30
2023-03-06T02:10:22.739Z,4.30
2023-03-06T02:12:52.400Z,4.30
2023-03-06T02:15:25.703Z,4.20
2023-03-06T02:17:55.416Z,4.20
2023-03-06T02:20:30.269Z,4.20
2023-03-06T02:23:04.077Z,4.20
2023-03-06T02:25:37.085Z,4.20
2023-03-06T02:28:05.873Z,4.20
2023-03-06T02:30:34.127Z,4.20
2023-03-06T02:33:02.265Z,4.20
2023-03-06T02:35:31.872Z,4.20
2023-03-06T02:38:03.455Z,4.20
2023-03-06T02:40:31.375Z,4.20
2023-03-06T02:43:01.604Z,4.20
2023-03-06T02:45:35.905Z,4.20
2023-03-06T02:48:04.260Z,4.20
2023-03-06T02:50:33.253Z,4.20
2023-03-06T02:53:01.038Z,4.20
2023-03-06T02:55:28.887Z,4.20
2023-03-06T02:57:56.755Z,4.20
2023-03-06T03:00:26.306Z,4.20
2023-03-06T03:02:54.583Z,4.20
2023-03-06T03:05:22.729Z,4.20
2023-03-06T03:07:50.780Z,4.20
2023-03-06T03:10:18.743Z,4.20
2023-03-06T03:12:47.054Z,4.20
2023-03-06T03:15:15.019Z,4.20
2023-03-06T03:17:44.554Z,4.20
2023-03-06T03:20:16.030Z,4.10
2023-03-06T03:22:43.869Z,4.10
2023-03-06T03:25:11.950Z,4.10
2023-03-06T03:27:39.799Z,4.10
2023-03-06T03:30:09.127Z,4.20
2023-03-06T03:32:37.305Z,4.10
2023-03-06T03:35:09.277Z,4.10
2023-03-06T03:37:37.502Z,4.10
2023-03-06T03:40:07.824Z,4.10
2023-03-06T03:42:35.661Z,4.10
2023-03-06T03:45:03.497Z,4.10
2023-03-06T03:47:31.350Z,4.10
2023-03-06T03:49:59.191Z,4.10
2023-03-06T03:52:28.432Z,4.10
2023-03-06T03:54:56.490Z,4.10
2023-03-06T03:57:24.349Z,4.10
2023-03-06T03:59:52.136Z,4.10
2023-03-06T04:02:21.644Z,4.10
2023-03-06T04:04:49.623Z,4.10
2023-03-06T04:07:17.515Z,4.10
2023-03-06T04:09:47.294Z,4.10
2023-03-06T04:12:15.221Z,4.10
2023-03-06T04:14:43.054Z,4.10
2023-03-06T04:17:10.947Z,4.10
2023-03-06T04:19:38.762Z,4.10
2023-03-06T04:22:06.680Z,4.10
2023-03-06T04:24:34.564Z,4.10
2023-03-06T04:27:03.851Z,4.10
2023-03-06T04:29:31.784Z,4.10
2023-03-06T04:31:59.679Z,4.10
2023-03-06T04:34:27.504Z,4.10
2023-03-06T04:36:55.369Z,4.10
2023-03-06T04:39:23.169Z,4.10
2023-03-06T04:41:50.998Z,4.00
2023-03-06T04:44:20.176Z,4.00
2023-03-06T04:46:50.168Z,4.00
2023-03-06T04:49:18.044Z,4.00
2023-03-06T04:51:45.973Z,4.00
2023-03-06T04:54:13.813Z,4.00
2023-03-06T04:56:41.748Z,4.00
2023-03-06T04:59:09.613Z,4.00
2023-03-06T05:01:38.916Z,4.00
2023-03-06T05:04:06.814Z,4.00
2023-03-06T05:06:34.658Z,4.00
2023-03-06T05:09:02.633Z,4.00
2023-03-06T05:11:30.452Z,4.00
2023-03-06T05:13:58.271Z,4.00
2023-03-06T05:16:26.203Z,4.00
2023-03-06T05:18:55.376Z,4.00
2023-03-06T05:21:23.249Z,4.00
2023-03-06T05:23:51.041Z,4.00
2023-03-06T05:26:18.868Z,4.00
2023-03-06T05:28:47.055Z,3.90
2023-03-06T05:31:14.890Z,4.00
2023-03-06T05:33:42.727Z,4.00
2023-03-06T05:36:12.179Z,4.00
2023-03-06T05:38:40.036Z,4.00
2023-03-06T05:41:07.826Z,4.00
2023-03-06T05:43:35.643Z,3.90
2023-03-06T05:46:05.025Z,4.00
2023-03-06T05:48:33.529Z,3.90
2023-03-06T05:51:02.908Z,3.90
2023-03-06T05:53:32.839Z,3.90
2023-03-06T05:56:03.246Z,3.90
2023-03-06T05:58:32.458Z,3.90
2023-03-06T06:01:00.865Z,3.90
2023-03-06T06:03:28.714Z,3.90
2023-03-06T06:05:56.600Z,3.90
2023-03-06T06:08:24.497Z,3.90
2023-03-06T06:10:53.701Z,3.90
2023-03-06T06:13:21.577Z,3.90
2023-03-06T06:15:49.461Z,3.90
2023-03-06T06:18:17.413Z,3.90
2023-03-06T06:20:47.019Z,3.90
2023-03-06T06:23:14.942Z,3.90
2023-03-06T06:25:42.873Z,3.90
2023-03-06T06:28:12.337Z,3.90
2023-03-06T06:30:40.271Z,3.90
2023-03-06T06:33:08.162Z,3.90
2023-03-06T06:35:37.821Z,3.90
2023-03-06T06:38:05.820Z,3.90
2023-03-06T06:40:33.643Z,3.90
2023-03-06T06:43:01.522Z,3.90
2023-03-06T06:45:30.818Z,3.90
2023-03-06T06:47:58.787Z,3.90
2023-03-06T06:50:26.689Z,3.90
2023-03-06T06:52:54.557Z,3.90
2023-03-06T06:55:22.355Z,3.90
2023-03-06T06:57:50.162Z,3.90
2023-03-06T07:00:19.359Z,3.90
2023-03-06T07:02:51.153Z,3.90
2023-03-06T07:05:21.007Z,3.90
2023-03-06T07:07:51.256Z,3.90
2023-03-06T07:10:20.738Z,3.90
2023-03-06T07:12:49.008Z,3.90
2023-03-06T07:15:18.237Z,3.80
2023-03-06T07:17:47.712Z,3.90
2023-03-06T07:20:19.486Z,3.80
2023-03-06T07:22:51.466Z,3.80
2023-03-06T07:25:20.363Z,3.90
2023-03-06T07:27:53.471Z,3.90
2023-03-06T07:30:22.884Z,3.90
2023-03-06T07:32:53.775Z,3.90
2023-03-06T07:35:23.681Z,3.80
2023-03-06T07:37:51.636Z,3.90
2023-03-06T07:40:20.666Z,3.90
2023-03-06T07:42:48.609Z,3.90
2023-03-06T07:45:16.882Z,3.90
2023-03-06T07:47:44.743Z,3.90
2023-03-06T07:50:13.377Z,3.90
2023-03-06T07:52:42.528Z,3.90
2023-03-06T07:55:11.749Z,3.90
2023-03-06T07:57:39.862Z,3.90
2023-03-06T08:00:12.753Z,3.90
2023-03-06T08:02:41.364Z,3.90
2023-03-06T08:05:10.942Z,3.90
2023-03-06T08:07:39.137Z,3.90
2023-03-06T08:10:09.660Z,3.90
2023-03-06T08:12:37.560Z,3.90
2023-03-06T08:15:06.246Z,3.90
2023-03-06T08:17:34.114Z,3.90
2023-03-06T08:20:01.979Z,3.90
2023-03-06T08:22:30.098Z,3.90
2023-03-06T08:24:58.111Z,3.90
2023-03-06T08:27:27.334Z,4.00
2023-03-06T08:29:55.219Z,4.00
2023-03-06T08:32:23.113Z,4.00
2023-03-06T08:34:51.240Z,4.00
2023-03-06T08:37:19.172Z,4.00
2023-03-06T08:39:47.027Z,4.00
2023-03-06T08:42:15.916Z,4.00
2023-03-06T08:44:45.838Z,4.00
2023-03-06T08:47:14.056Z,4.00
2023-03-06T08:49:41.937Z,4.00
2023-03-06T08:52:09.897Z,4.00
2023-03-06T08:54:39.126Z,4.00
2023-03-06T08:57:09.145Z,4.00
2023-03-06T08:59:37.467Z,4.10
2023-03-06T09:02:07.649Z,4.10
2023-03-06T09:04:35.980Z,4.10
2023-03-06T09:07:03.923Z,4.10
2023-03-06T09:09:31.792Z,4.10
2023-03-06T09:11:59.579Z,4.10
2023-03-06T09:14:27.452Z,4.10
2023-03-06T09:16:55.303Z,4.10
2023-03-06T09:19:24.623Z,4.20
2023-03-06T09:21:53.947Z,4.20
2023-03-06T09:24:21.808Z,4.20
2023-03-06T09:26:51.624Z,4.20
2023-03-06T09:29:19.684Z,4.20
2023-03-06T09:31:47.903Z,4.20
2023-03-06T09:34:16.021Z,4.20
2023-03-06T09:36:56.884Z,4.30
2023-03-06T09:39:26.530Z,4.30
2023-03-06T09:41:54.889Z,4.30
2023-03-06T09:44:27.594Z,4.30
2023-03-06T09:47:19.221Z,4.30
2023-03-06T09:50:05.108Z,4.30
2023-03-06T09:52:38.446Z,4.30
2023-03-06T09:55:13.497Z,4.30
2023-03-06T09:57:45.963Z,4.30
2023-03-06T10:00:16.822Z,4.30
2023-03-06T10:02:48.681Z,4.40
2023-03-06T10:05:22.688Z,4.40
2023-03-06T10:07:57.524Z,4.40
2023-03-06T10:10:28.154Z,4.40
2023-03-06T10:13:04.016Z,4.40
2023-03-06T10:15:34.485Z,4.40
2023-03-06T10:18:03.634Z,4.40
2023-03-06T10:20:38.108Z,4.40
2023-03-06T10:23:26.475Z,4.50
2023-03-06T10:26:00.916Z,4.40
2023-03-06T10:28:35.111Z,4.50
2023-03-06T10:31:10.639Z,4.50
2023-03-06T10:33:52.756Z,4.50
2023-03-06T10:36:21.717Z,4.60
2023-03-06T10:38:50.876Z,4.60
2023-03-06T10:41:25.202Z,4.60
2023-03-06T10:44:19.539Z,4.60
2023-03-06T10:46:49.718Z,4.70
2023-03-06T10:49:30.998Z,4.70
2023-03-06T10:52:01.668Z,4.70
2023-03-06T10:54:35.233Z,4.70
2023-03-06T10:57:19.448Z,4.80
2023-03-06T10:59:53.315Z,4.80
2023-03-06T11:02:27.325Z,4.80
2023-03-06T11:04:56.294Z,4.80
2023-03-06T11:07:26.096Z,4.90
2023-03-06T11:10:05.625Z,4.80
2023-03-06T11:12:34.934Z,4.90
2023-03-06T11:15:14.111Z,4.90
2023-03-06T11:17:50.804Z,4.90
2023-03-06T11:20:20.406Z,4.90
2023-03-06T11:22:52.117Z,5.00
2023-03-06T11:25:23.457Z,5.00
2023-03-06T11:27:59.315Z,5.00
2023-03-06T11:30:32.929Z,5.00
2023-03-06T11:33:05.003Z,5.10
2023-03-06T11:35:40.268Z,5.10
2023-03-06T11:38:15.326Z,5.10
2023-03-06T11:40:52.024Z,5.10
2023-03-06T11:43:24.347Z,5.20
2023-03-06T11:45:58.949Z,5.20
2023-03-06T11:48:30.659Z,5.10
2023-03-06T11:51:06.474Z,5.20
2023-03-06T11:53:36.421Z,5.20
2023-03-06T11:56:20.615Z,5.20
2023-03-06T11:59:24.619Z,5.20
2023-03-06T12:02:01.052Z,5.20
2023-03-06T12:04:49.427Z,5.20
2023-03-06T12:07:25.473Z,5.20
2023-03-06T12:09:58.887Z,5.30
2023-03-06T12:13:05.380Z,5.30
2023-03-06T12:15:48.524Z,5.20
2023-03-06T12:18:41.079Z,5.20
2023-03-06T12:21:15.028Z,5.20
2023-03-06T12:24:09.490Z,5.20
2023-03-06T12:27:09.124Z,5.20
2023-03-06T12:29:56.946Z,5.20
2023-03-06T12:32:36.575Z,5.30
2023-03-06T12:35:23.407Z,5.30
2023-03-06T12:38:05.233Z,5.30
2023-03-06T12:40:55.581Z,5.20
2023-03-06T12:43:51.986Z,5.20
2023-03-06T12:46:24.063Z,5.20
2023-03-06T12:49:02.785Z,5.20
2023-03-06T12:51:31.129Z,5.20
2023-03-06T12:54:00.940Z,5.20
2023-03-06T12:56:30.615Z,5.20
2023-03-06T12:59:02.205Z,5.20
2023-03-06T13:02:04.055Z,5.30
2023-03-06T13:04:56.413Z,5.30
2023-03-06T13:07:37.108Z,5.30
2023-03-06T13:10:11.777Z,5.30
2023-03-06T13:12:55.886Z,5.30
2023-03-06T13:15:45.977Z,5.30
2023-03-06T13:18:50.800Z,5.30
2023-03-06T13:21:59.875Z,5.40
2023-03-06T13:24:29.029Z,5.40
2023-03-06T13:27:06.948Z,5.40
2023-03-06T13:29:54.019Z,5.40
2023-03-06T13:32:32.693Z,5.40
2023-03-06T13:35:00.648Z,5.40
2023-03-06T13:37:49.638Z,5.40
2023-03-06T13:40:32.490Z,5.40
2023-03-06T13:43:19.713Z,5.40
2023-03-06T13:45:49.065Z,5.40
2023-03-06T13:48:47.679Z,5.30
2023-03-06T13:51:24.845Z,5.30
2023-03-06T13:54:26.128Z,5.30
2023-03-06T13:57:19.441Z,5.30
2023-03-06T14:00:16.416Z,5.30
2023-03-06T14:03:02.798Z,5.30
2023-03-06T14:05:41.939Z,5.30
2023-03-06T14:08:13.642Z,5.30
2023-03-06T14:10:44.364Z,5.30
2023-03-06T14:13:19.381Z,5.30
2023-03-06T14:15:49.897Z,5.30
2023-03-06T14:18:23.689Z,5.30
2023-03-06T14:20:56.224Z,5.30
2023-03-06T14:23:27.593Z,5.30
2023-03-06T14:26:01.380Z,5.40
2023-03-06T14:28:31.110Z,5.40
2023-03-06T14:31:00.939Z,5.40
2023-03-06T14:33:33.169Z,5.40
2023-03-06T14:36:03.737Z,5.40
2023-03-06T14:38:35.432Z,5.40
2023-03-06T14:41:06.349Z,5.30
2023-03-06T14:43:34.284Z,5.30
2023-03-06T14:46:05.113Z,5.30
2023-03-06T14:48:41.902Z,5.20
2023-03-06T14:51:17.877Z,5.20
2023-03-06T14:53:48.503Z,5.20
2023-03-06T14:56:20.052Z,5.20
2023-03-06T14:58:56.485Z,5.10
2023-03-06T15:01:29.952Z,5.10
2023-03-06T15:04:00.770Z,5.10
2023-03-06T15:06:33.112Z,5.10
2023-03-06T15:09:05.851Z,5.10
2023-03-06T15:12:00.226Z,5.20
2023-03-06T15:14:32.894Z,5.20
2023-03-06T15:17:22.862Z,5.20
2023-03-06T15:19:54.171Z,5.10
2023-03-06T15:22:27.950Z,5.20
2023-03-06T15:25:16.077Z,5.10
2023-03-06T15:27:51.521Z,5.10
2023-03-06T15:30:25.744Z,5.10
2023-03-06T15:33:09.074Z,5.10
2023-03-06T15:35:38.291Z,5.20
2023-03-06T15:38:23.618Z,5.10
2023-03-06T15:40:56.592Z,5.20
2023-03-06T15:43:26.433Z,5.20
2023-03-06T15:45:59.797Z,5.20
2023-03-06T15:48:28.444Z,5.20
2023-03-06T15:50:56.289Z,5.20
2023-03-06T15:53:24.280Z,5.20
2023-03-06T15:55:53.909Z,5.20
2023-03-06T15:58:24.809Z,5.10
2023-03-06T16:00:54.250Z,5.20
2023-03-06T16:03:22.069Z,5.20
2023-03-06T16:05:49.994Z,5.20
2023-03-06T16:08:17.855Z,5.20
2023-03-06T16:10:46.963Z,5.20
2023-03-06T16:13:18.196Z,5.20
2023-03-06T16:15:48.599Z,5.20
2023-03-06T16:18:19.141Z,5.20
2023-03-06T16:20:47.849Z,5.20
2023-03-06T16:23:16.430Z,5.20
2023-03-06T16:25:55.937Z,5.20
2023-03-06T16:28:23.934Z,5.20
2023-03-06T16:30:51.844Z,5.20
2023-03-06T16:33:21.162Z,5.20
2023-03-06T16:35:49.955Z,5.20
2023-03-06T16:38:18.316Z,5.20
2023-03-06T16:40:46.539Z,5.20
2023-03-06T16:43:16.082Z,5.20
2023-03-06T16:45:44.745Z,5.20
2023-03-06T16:48:17.185Z,5.20
2023-03-06T16:50:46.944Z,5.20
2023-03-06T16:53:15.342Z,5.10
2023-03-06T16:55:43.309Z,5.20
2023-03-06T16:58:11.270Z,5.10
2023-03-06T17:00:39.211Z,5.10
2023-03-06T17:03:07.929Z,5.10
2023-03-06T17:05:37.177Z,5.10
2023-03-06T17:08:06.975Z,5.10
2023-03-06T17:10:34.876Z,5.10
2023-03-06T17:13:03.004Z,5.10
2023-03-06T17:15:31.164Z,5.00
2023-03-06T17:17:59.318Z,5.10
2023-03-06T17:20:27.282Z,5.10
2023-03-06T17:22:55.143Z,5.00
2023-03-06T17:25:24.456Z,5.00
2023-03-06T17:27:52.572Z,5.00
2023-03-06T17:30:20.532Z,5.00
2023-03-06T17:32:48.738Z,5.00
2023-03-06T17:35:16.850Z,4.90
2023-03-06T17:37:44.833Z,4.90
2023-03-06T17:40:15.454Z,4.90
2023-03-06T17:42:44.724Z,4.90
2023-03-06T17:45:13.752Z,4.90
2023-03-06T17:47:41.764Z,4.90
2023-03-06T17:50:11.237Z,4.90
2023-03-06T17:52:39.261Z,4.90
2023-03-06T17:55:08.420Z,4.90
2023-03-06T17:57:36.889Z,4.90
2023-03-06T18:00:07.436Z,4.90
2023-03-06T18:02:35.390Z,4.90
2023-03-06T18:05:03.557Z,4.90
2023-03-06T18:07:32.025Z,4.80
2023-03-06T18:09:59.827Z,4.80
2023-03-06T18:12:28.144Z,4.80
2023-03-06T18:14:55.999Z,4.80
2023-03-06T18:17:25.260Z,4.90
2023-03-06T18:19:53.163Z,4.90
2023-03-06T18:22:21.126Z,4.80
2023-03-06T18:24:49.256Z,4.80
2023-03-06T18:27:17.117Z,4.80
2023-03-06T18:29:44.968Z,4.80
2023-03-06T18:32:12.840Z,4.80
2023-03-06T18:34:42.172Z,4.80
2023-03-06T18:37:10.249Z,4.80
2023-03-06T18:39:38.152Z,4.80
2023-03-06T18:42:06.650Z,4.80
2023-03-06T18:44:34.612Z,4.80
2023-03-06T18:47:02.532Z,4.80
2023-03-06T18:49:30.490Z,4.80
2023-03-06T18:51:59.672Z,4.80
2023-03-06T18:54:28.636Z,4.80
2023-03-06T18:56:56.634Z,4.80
2023-03-06T18:59:25.834Z,4.70
2023-03-06T19:01:57.576Z,4.70
2023-03-06T19:04:25.508Z,4.80
2023-03-06T19:06:54.507Z,4.80
2023-03-06T19:09:23.926Z,4.70
2023-03-06T19:11:53.737Z,4.70
2023-03-06T19:14:22.674Z,4.70
2023-03-06T19:16:50.707Z,4.70
2023-03-06T19:19:18.567Z,4.70
2023-03-06T19:21:47.063Z,4.70
2023-03-06T19:24:14.932Z,4.70
2023-03-06T19:26:44.338Z,4.70
2023-03-06T19:29:12.246Z,4.70
2023-03-06T19:31:40.136Z,4.70
2023-03-06T19:34:08.040Z,4.70
2023-03-06T19:36:38.422Z,4.70
2023-03-06T19:39:08.151Z,4.60
2023-03-06T19:41:36.516Z,4.60
2023-03-06T19:44:06.226Z,4.60
2023-03-06T19:46:36.119Z,4.60
2023-03-06T19:49:11.584Z,4.60
2023-03-06T19:51:39.511Z,4.60
2023-03-06T19:54:07.375Z,4.60
2023-03-06T19:56:35.252Z,4.60
2023-03-06T19:59:03.418Z,4.60
2023-03-06T20:01:34.221Z,4.60
2023-03-06T20:04:03.269Z,4.60
2023-03-06T20:06:34.268Z,4.60
2023-03-06T20:09:03.082Z,4.60
2023-03-06T20:11:31.476Z,4.60
2023-03-06T20:14:01.178Z,4.60
2023-03-06T20:16:29.817Z,4.60
2023-03-06T20:19:00.291Z,4.60
2023-03-06T20:21:29.704Z,4.60
2023-03-06T20:23:58.628Z,4.60
2023-03-06T20:26:28.281Z,4.60
2023-03-06T20:28:57.045Z,4.60
2023-03-06T20:31:27.072Z,4.60
2023-03-06T20:33:57.450Z,4.60
2023-03-06T20:36:28.936Z,4.60
2023-03-06T20:38:58.129Z,4.60
2023-03-06T20:41:27.990Z,4.60
2023-03-06T20:43:55.998Z,4.60
2023-03-06T20:46:24.303Z,4.60
2023-03-06T20:48:54.097Z,4.60
2023-03-06T20:51:23.841Z,4.60
2023-03-06T20:53:54.022Z,4.60
2023-03-06T20:56:23.923Z,4.60
2023-03-06T20:58:52.592Z,4.60
2023-03-06T21:01:21.776Z,4.50
2023-03-06T21:03:50.183Z,4.50
2023-03-06T21:06:19.135Z,4.50
2023-03-06T21:08:47.697Z,4.50
2023-03-06T21:11:17.536Z,4.50
2023-03-06T21:13:53.154Z,4.50
2023-03-06T21:16:23.725Z,4.50
2023-03-06T21:18:51.686Z,4.50
2023-03-06T21:21:22.191Z,4.50
2023-03-06T21:23:50.530Z,4.50
2023-03-06T21:26:21.792Z,4.50
2023-03-06T21:28:49.948Z,4.50
2023-03-06T21:31:19.859Z,4.50
2023-03-06T21:33:48.893Z,4.50
2023-03-06T21:36:20.468Z,4.50
2023-03-06T21:38:49.967Z,4.50
2023-03-06T21:41:20.630Z,4.50
2023-03-06T21:43:48.557Z,4.50
2023-03-06T21:46:16.456Z,4.50
2023-03-06T21:48:44.506Z,4.50
2023-03-06T21:51:15.642Z,4.50
2023-03-06T21:53:44.149Z,4.50
2023-03-06T21:56:13.630Z,4.50
2023-03-06T21:58:42.930Z,4.50
2023-03-06T22:01:11.662Z,4.50
2023-03-06T22:03:39.692Z,4.50
2023-03-06T22:06:12.241Z,4.50
2023-03-06T22:08:40.722Z,4.50
2023-03-06T22:11:09.709Z,4.50
2023-03-06T22:13:38.146Z,4.50
2023-03-06T22:16:08.220Z,4.40
2023-03-06T22:18:36.861Z,4.50
2023-03-06T22:21:08.298Z,4.50
2023-03-06T22:23:36.809Z,4.40
2023-03-06T22:26:05.223Z,4.40
2023-03-06T22:28:33.725Z,4.40
2023-03-06T22:31:08.015Z,4.40
2023-03-06T22:33:35.952Z,4.40
2023-03-06T22:36:06.425Z,4.40
2023-03-06T22:38:34.768Z,4.40
2023-03-06T22:41:03.204Z,4.40
2023-03-06T22:43:31.448Z,4.40
2023-03-06T22:46:02.476Z,4.40
2023-03-06T22:48:31.888Z,4.40
2023-03-06T22:51:03.454Z,4.40
2023-03-06T22:53:31.849Z,4.40
2023-03-06T22:56:00.126Z,4.40
2023-03-06T22:58:34.177Z,4.40
2023-03-06T23:01:06.061Z,4.30
2023-03-06T23:03:36.258Z,4.30
2023-03-06T23:06:07.347Z,4.40
2023-03-06T23:08:35.187Z,4.40
2023-03-06T23:11:03.034Z,4.40
2023-03-06T23:13:30.891Z,4.40
2023-03-06T23:16:02.102Z,4.30
2023-03-06T23:18:29.918Z,4.30
2023-03-06T23:20:59.492Z,4.30
2023-03-06T23:23:27.677Z,4.30
2023-03-06T23:26:00.169Z,4.30
2023-03-06T23:28:28.685Z,4.30
2023-03-06T23:30:56.534Z,4.30
2023-03-06T23:33:24.514Z,4.30
2023-03-06T23:35:55.249Z,4.30
2023-03-06T23:38:24.571Z,4.30
2023-03-06T23:40:52.443Z,4.30
2023-03-06T23:43:20.397Z,4.30
2023-03-06T23:45:54.096Z,4.30
2023-03-06T23:48:22.436Z,4.30
2023-03-06T23:50:50.433Z,4.30
2023-03-06T23:53:18.447Z,4.30
2023-03-06T23:55:49.471Z,4.30
2023-03-06T23:58:18.234Z,4.30
